createdAt,value
2018-07-11T00:00:23.338Z,100528.09
2018-07-11T00:05:40.184Z,100515.37
2018-07-11T00:08:09.495Z,100521.27
2018-07-11T00:10:38.652Z,100511.86
2018-07-11T00:13:12.578Z,100511.73
2018-07-11T00:21:17.028Z,100509.66
2018-07-11T00:23:51.261Z,100497.17
2018-07-11T00:31:58.682Z,100506.83
2018-07-11T00:34:25.608Z,100505.02
2018-07-11T00:36:54.289Z,100507.54
2018-07-11T00:39:23.423Z,100503.50
2018-07-11T00:41:52.415Z,100504.84
2018-07-11T00:47:08.743Z,100500.91
2018-07-11T00:49:40.307Z,100502.24
2018-07-11T00:54:56.529Z,100496.36
2018-07-11T00:57:26.365Z,100494.45
2018-07-11T00:59:55.280Z,100491.19
2018-07-11T01:02:23.957Z,100485.72
2018-07-11T01:04:52.591Z,100487.20
2018-07-11T01:07:21.266Z,100479.78
2018-07-11T01:09:50.276Z,100477.06
2018-07-11T01:12:22.363Z,100470.75
2018-07-11T01:14:57.800Z,100472.34
2018-07-11T01:17:28.319Z,100469.95
2018-07-11T01:19:59.424Z,100467.19
2018-07-11T01:22:28.098Z,100457.65
2018-07-11T01:24:57.018Z,100462.98
2018-07-11T01:30:13.313Z,100457.16
2018-07-11T01:32:42.421Z,100452.68
2018-07-11T01:35:11.516Z,100456.58
2018-07-11T01:37:40.321Z,100458.63
2018-07-11T01:40:08.968Z,100454.45
2018-07-11T01:42:37.658Z,100452.57
2018-07-11T01:47:54.097Z,100450.60
2018-07-11T01:50:22.769Z,100444.98
2018-07-11T01:52:51.438Z,100445.78
2018-07-11T01:55:20.073Z,100447.87
2018-07-11T01:57:48.750Z,100446.27
2018-07-11T02:00:17.406Z,100445.42
2018-07-11T02:02:46.175Z,100453.91
2018-07-11T02:05:14.839Z,100449.80
2018-07-11T02:07:43.533Z,100446.05
2018-07-11T02:10:13.173Z,100451.79
2018-07-11T02:12:43.374Z,100449.45
2018-07-11T02:15:12.633Z,100449.09
2018-07-11T02:17:41.839Z,100443.38
2018-07-11T02:20:11.920Z,100442.97
2018-07-11T02:22:40.935Z,100445.11
2018-07-11T02:25:18.814Z,100436.23
2018-07-11T02:27:47.944Z,100434.00
2018-07-11T02:30:17.624Z,100439.58
2018-07-11T02:32:46.691Z,100439.78
2018-07-11T02:35:15.620Z,100440.47
2018-07-11T02:37:44.779Z,100440.47
2018-07-11T02:40:14.231Z,100443.70
2018-07-11T02:42:43.325Z,100439.72
2018-07-11T02:45:12.270Z,100445.81
2018-07-11T02:47:40.930Z,100443.16
2018-07-11T02:50:09.625Z,100448.28
2018-07-11T02:55:25.911Z,100440.95
2018-07-11T02:57:54.618Z,100450.63
2018-07-11T03:00:23.313Z,100453.34
2018-07-11T03:02:51.932Z,100455.73
2018-07-11T03:05:20.625Z,100455.73
2018-07-11T03:07:49.283Z,100456.11
2018-07-11T03:10:18.067Z,100455.78
2018-07-11T03:12:48.458Z,100457.75
2018-07-11T03:15:17.160Z,100456.92
2018-07-11T03:17:46.878Z,100457.92
2018-07-11T03:25:53.174Z,100460.67
2018-07-11T03:28:21.895Z,100452.97
2018-07-11T03:30:50.472Z,100450.65
2018-07-11T03:33:19.165Z,100448.95
2018-07-11T03:35:47.818Z,100453.33
2018-07-11T03:38:16.460Z,100456.36
2018-07-11T03:40:45.157Z,100460.27
2018-07-11T03:43:13.809Z,100455.65
2018-07-11T03:45:42.516Z,100456.20
2018-07-11T03:48:11.160Z,100457.63
2018-07-11T03:50:39.893Z,100451.95
2018-07-11T03:53:08.551Z,100455.55
2018-07-11T04:12:21.778Z,100481.61
2018-07-11T04:14:50.767Z,100490.69
2018-07-11T04:17:19.914Z,100495.45
2018-07-11T04:19:49.532Z,100492.66
2018-07-11T04:22:18.295Z,100488.02
2018-07-11T04:27:36.606Z,100474.09
2018-07-11T04:30:05.600Z,100476.00
2018-07-11T04:32:34.855Z,100471.00
2018-07-11T04:35:03.601Z,100460.44
2018-07-11T04:37:32.380Z,100454.45
2018-07-11T04:40:01.690Z,100457.78
2018-07-11T04:42:31.188Z,100456.20
2018-07-11T04:44:59.815Z,100458.06
2018-07-11T04:47:33.667Z,100462.44
2018-07-11T04:50:02.667Z,100460.00
2018-07-11T04:52:33.944Z,100460.55
2018-07-11T04:55:05.835Z,100464.59
2018-07-11T05:00:24.356Z,100466.41
2018-07-11T05:02:54.643Z,100466.27
2018-07-11T05:05:23.875Z,100464.78
2018-07-11T05:07:52.953Z,100473.81
2018-07-11T05:10:23.593Z,100474.18
2018-07-11T05:12:52.681Z,100473.52
2018-07-11T05:15:21.828Z,100480.55
2018-07-11T05:17:54.290Z,100479.55
2018-07-11T05:20:25.743Z,100479.12
2018-07-11T05:22:55.779Z,100483.80
2018-07-11T05:25:25.416Z,100479.55
2018-07-11T05:27:55.802Z,100472.91
2018-07-11T05:30:26.282Z,100474.56
2018-07-11T05:32:55.182Z,100478.16
2018-07-11T05:35:26.677Z,100489.09
2018-07-11T05:37:57.163Z,100480.25
2018-07-11T05:40:27.316Z,100486.69
2018-07-11T05:42:56.524Z,100487.78
2018-07-11T05:45:29.090Z,100481.81
2018-07-11T05:47:59.274Z,100483.64
2018-07-11T05:50:39.687Z,100482.92
2018-07-11T05:53:08.902Z,100488.13
2018-07-11T05:55:38.084Z,100485.45
2018-07-11T05:58:07.030Z,100480.01
2018-07-11T06:25:31.099Z,100481.88
2018-07-11T06:39:18.842Z,100488.16
2018-07-11T07:33:02.487Z,100490.27
2018-07-11T07:41:22.184Z,100483.25
2018-07-11T07:43:55.603Z,100485.06
2018-07-11T07:57:52.450Z,100494.30
2018-07-11T08:06:08.519Z,100496.53
2018-07-11T08:54:30.954Z,100495.17
2018-07-11T09:14:05.143Z,100499.11
2018-07-11T09:16:40.108Z,100497.50
2018-07-11T09:19:17.420Z,100498.88
2018-07-11T09:36:01.814Z,100498.95
2018-07-11T09:38:32.209Z,100498.11
2018-07-11T09:41:02.427Z,100498.59
2018-07-11T11:30:29.712Z,100458.66
2018-07-11T11:33:08.474Z,100444.45
2018-07-11T12:09:13.148Z,100434.95
2018-07-11T12:20:11.568Z,100427.84
2018-07-11T12:53:42.976Z,100410.58
2018-07-11T14:23:32.468Z,100343.08
2018-07-11T14:40:19.118Z,100347.70
2018-07-11T14:42:58.897Z,100354.48
2018-07-11T14:45:31.089Z,100351.84
2018-07-11T14:48:03.914Z,100357.48
2018-07-11T14:53:28.487Z,100359.23
2018-07-11T14:56:00.844Z,100369.95
2018-07-11T15:01:33.406Z,100376.93
2018-07-11T15:04:04.018Z,100393.66
2018-07-11T15:09:22.232Z,100437.62
2018-07-11T15:11:50.719Z,100414.03
2018-07-11T15:17:07.615Z,100430.55
2018-07-11T15:19:36.721Z,100424.63
2018-07-11T15:22:06.010Z,100421.59
2018-07-11T15:24:35.015Z,100422.53
2018-07-11T15:27:04.760Z,100419.10
2018-07-11T15:29:34.942Z,100425.28
2018-07-11T15:35:00.786Z,100418.73
2018-07-11T15:37:33.454Z,100397.77
2018-07-11T15:40:03.985Z,100398.11
2018-07-11T15:42:38.576Z,100401.22
2018-07-11T15:45:08.023Z,100406.73
2018-07-11T15:47:42.534Z,100412.95
2018-07-11T15:50:11.700Z,100416.42
2018-07-11T15:52:40.949Z,100416.20
2018-07-11T15:55:09.969Z,100418.98
2018-07-11T15:57:38.981Z,100418.94
2018-07-11T16:00:08.460Z,100418.33
2018-07-11T16:02:37.439Z,100413.05
2018-07-11T16:05:06.818Z,100417.11
2018-07-11T16:07:35.527Z,100407.95
2018-07-11T16:10:04.434Z,100402.55
2018-07-11T16:12:33.866Z,100405.02
2018-07-11T16:15:02.689Z,100405.23
2018-07-11T16:17:31.558Z,100403.09
2018-07-11T16:20:00.225Z,100402.28
2018-07-11T16:22:29.314Z,100400.06
2018-07-11T16:24:58.087Z,100396.80
2018-07-11T16:27:26.779Z,100393.46
2018-07-11T16:29:56.437Z,100401.62
2018-07-11T16:32:25.191Z,100406.30
2018-07-11T16:34:53.907Z,100408.36
2018-07-11T16:37:22.620Z,100393.78
2018-07-11T16:39:51.554Z,100391.05
2018-07-11T16:42:20.502Z,100394.19
2018-07-11T16:44:50.127Z,100398.47
2018-07-11T16:47:19.819Z,100402.55
2018-07-11T16:49:48.950Z,100402.33
2018-07-11T16:52:17.526Z,100401.52
2018-07-11T16:54:46.349Z,100395.59
2018-07-11T16:57:15.135Z,100404.54
2018-07-11T16:59:44.073Z,100401.42
2018-07-11T17:02:14.489Z,100409.36
2018-07-11T17:04:46.108Z,100408.81
2018-07-11T17:07:15.276Z,100411.08
2018-07-11T17:09:44.958Z,100410.50
2018-07-11T17:12:14.115Z,100420.10
2018-07-11T17:14:43.402Z,100422.84
2018-07-11T17:17:12.813Z,100421.58
2018-07-11T17:19:42.108Z,100417.39
2018-07-11T17:22:10.996Z,100414.92
2018-07-11T17:24:41.586Z,100410.73
2018-07-11T17:27:16.987Z,100407.76
2018-07-11T17:29:46.206Z,100408.21
2018-07-11T17:32:15.445Z,100407.59
2018-07-11T17:34:44.429Z,100417.13
2018-07-11T17:37:16.415Z,100415.50
2018-07-11T17:39:45.834Z,100418.84
2018-07-11T17:42:18.164Z,100412.33
2018-07-11T17:44:47.845Z,100412.80
2018-07-11T17:47:17.369Z,100413.55
2018-07-11T17:49:46.451Z,100413.42
2018-07-11T17:52:16.717Z,100418.86
2018-07-11T17:54:46.015Z,100417.58
2018-07-11T17:57:15.261Z,100424.22
2018-07-11T17:59:45.070Z,100421.88
2018-07-11T18:02:33.438Z,100427.83
2018-07-11T18:05:02.567Z,100428.34
2018-07-11T18:07:31.771Z,100431.70
2018-07-11T18:10:01.182Z,100431.09
2018-07-11T18:12:32.317Z,100435.02
2018-07-11T18:15:02.147Z,100431.38
2018-07-11T18:17:31.309Z,100435.23
2018-07-11T18:20:00.632Z,100434.59
2018-07-11T18:25:20.199Z,100437.88
2018-07-11T18:27:49.996Z,100437.81
2018-07-11T18:30:19.042Z,100446.86
2018-07-11T18:32:50.206Z,100448.68
2018-07-11T18:35:29.264Z,100451.20
2018-07-11T18:37:58.305Z,100452.39
2018-07-11T18:40:27.251Z,100451.67
2018-07-11T18:42:56.351Z,100451.84
2018-07-11T18:45:25.396Z,100453.52
2018-07-11T18:50:42.610Z,100460.65
2018-07-11T18:53:14.515Z,100464.52
2018-07-11T18:55:43.797Z,100461.98
2018-07-11T18:58:16.017Z,100457.35
2018-07-11T19:00:44.973Z,100462.03
2018-07-11T19:03:14.260Z,100465.93
2018-07-11T19:05:44.285Z,100458.31
2018-07-11T19:08:14.535Z,100455.59
2018-07-11T19:10:51.876Z,100461.08
2018-07-11T19:16:20.940Z,100460.68
2018-07-11T19:19:04.411Z,100462.52
2018-07-11T19:21:46.420Z,100466.81
2018-07-11T19:24:19.770Z,100465.52
2018-07-11T19:27:01.495Z,100467.83
2018-07-11T19:32:30.675Z,100477.41
2018-07-11T19:35:01.586Z,100481.33
2018-07-11T19:37:30.389Z,100484.95
2018-07-11T19:39:59.253Z,100488.25
2018-07-11T19:42:34.946Z,100487.00
2018-07-11T19:45:09.132Z,100485.90
2018-07-11T19:47:42.510Z,100493.41
2018-07-11T19:50:19.072Z,100493.73
2018-07-11T19:52:51.384Z,100497.61
2018-07-11T19:55:20.266Z,100497.73
2018-07-11T19:57:49.762Z,100498.48
2018-07-11T20:00:18.814Z,100493.08
2018-07-11T20:02:49.655Z,100494.25
2018-07-11T20:05:19.043Z,100500.34
2018-07-11T20:07:47.894Z,100499.98
2018-07-11T20:10:16.735Z,100506.67
2018-07-11T20:12:45.697Z,100506.59
2018-07-11T20:15:17.674Z,100499.77
2018-07-11T20:17:47.430Z,100501.99
2018-07-11T20:20:16.729Z,100500.98
2018-07-11T20:22:45.654Z,100504.30
2018-07-11T20:25:15.224Z,100505.21
2018-07-11T20:27:44.283Z,100499.07
2018-07-11T20:30:13.949Z,100497.49
2018-07-11T20:32:43.624Z,100498.65
2018-07-11T20:35:18.996Z,100496.97
2018-07-11T20:37:53.926Z,100494.77
2018-07-11T20:40:22.843Z,100494.28
2018-07-11T20:42:54.932Z,100504.75
2018-07-11T20:45:23.772Z,100508.41
2018-07-11T20:47:56.217Z,100504.29
2018-07-11T20:50:26.143Z,100511.20
2018-07-11T20:52:55.949Z,100512.52
2018-07-11T20:55:41.082Z,100520.64
2018-07-11T20:58:10.350Z,100520.14
2018-07-11T21:01:17.263Z,100523.17
2018-07-11T21:03:50.898Z,100518.36
2018-07-11T21:11:58.546Z,100522.86
2018-07-11T21:14:28.119Z,100518.30
2018-07-11T21:16:57.483Z,100516.79
2018-07-11T21:19:31.418Z,100516.16
2018-07-11T21:22:01.136Z,100512.03
2018-07-11T21:24:33.271Z,100523.47
2018-07-11T21:27:02.877Z,100525.88
2018-07-11T21:29:35.687Z,100531.82
2018-07-11T21:32:05.351Z,100523.62
2018-07-11T21:34:34.998Z,100526.85
2018-07-11T21:37:04.955Z,100530.44
2018-07-11T21:39:34.356Z,100528.28
2018-07-11T21:42:03.655Z,100536.32
2018-07-11T21:44:34.793Z,100539.30
2018-07-11T21:47:07.168Z,100551.98
2018-07-11T21:49:36.769Z,100550.10
2018-07-11T21:52:14.046Z,100547.72
2018-07-11T21:54:43.621Z,100551.27
2018-07-11T21:57:14.412Z,100548.03
2018-07-11T21:59:49.536Z,100547.10
2018-07-11T22:02:19.902Z,100542.59
2018-07-11T22:07:37.735Z,100543.64
2018-07-11T22:10:07.336Z,100538.22
2018-07-11T22:12:36.600Z,100526.41
2018-07-11T22:15:06.048Z,100526.27
2018-07-11T22:20:22.767Z,100539.61
2018-07-11T22:22:51.262Z,100535.32
2018-07-11T22:25:22.220Z,100534.84
2018-07-11T22:27:51.122Z,100524.13
2018-07-11T22:30:20.135Z,100530.03
2018-07-11T22:32:49.046Z,100538.28
2018-07-11T22:35:19.933Z,100536.10
2018-07-11T22:40:36.225Z,100535.75
2018-07-11T22:43:06.088Z,100531.07
2018-07-11T22:45:34.803Z,100537.03
2018-07-11T22:50:54.654Z,100533.01
2018-07-11T22:53:23.488Z,100528.87
2018-07-11T22:55:53.040Z,100529.88
2018-07-11T22:58:22.041Z,100530.77
2018-07-11T23:00:51.159Z,100517.38
2018-07-11T23:03:19.690Z,100525.58
2018-07-11T23:05:48.181Z,100520.30
2018-07-11T23:08:16.663Z,100519.63
2018-07-11T23:10:50.826Z,100520.24
2018-07-11T23:13:19.626Z,100517.48
2018-07-11T23:15:51.376Z,100517.45
2018-07-11T23:18:22.930Z,100516.52
2018-07-11T23:20:52.832Z,100521.89
2018-07-11T23:23:23.677Z,100523.98
2018-07-11T23:25:52.301Z,100528.19
2018-07-11T23:28:20.981Z,100528.05
2018-07-11T23:30:48.952Z,100527.52
2018-07-11T23:33:17.187Z,100520.83
2018-07-11T23:35:45.156Z,100518.91
2018-07-11T23:38:13.408Z,100521.48
2018-07-11T23:40:41.545Z,100527.38
2018-07-11T23:43:09.675Z,100520.52
2018-07-11T23:45:37.806Z,100525.53
2018-07-11T23:48:06.049Z,100527.02
2018-07-11T23:50:34.141Z,100532.45
2018-07-11T23:53:02.540Z,100528.56
2018-07-11T23:55:30.594Z,100529.57
2018-07-11T23:57:58.987Z,100523.45
